sensor_id;sensor_type;location;lat;lon;timestamp;P1;durP1;ratioP1;P2;durP2;ratioP2
11537;SDS011;50159;49.426;11.182;2023-02-28T00:01:29;4.27;;;3.83;;
11537;SDS011;50159;49.426;11.182;2023-02-28T00:03:57;3.63;;;3.43;;
11537;SDS011;50159;49.426;11.182;2023-02-28T00:06:24;3.47;;;3.20;;
11537;SDS011;50159;49.426;11.182;2023-02-28T00:08:51;4.43;;;4.13;;
11537;SDS011;50159;49.426;11.182;2023-02-28T00:11:18;3.63;;;3.43;;
11537;SDS011;50159;49.426;11.182;2023-02-28T00:13:46;4.10;;;3.80;;
11537;SDS011;50159;49.426;11.182;2023-02-28T00:16:18;3.93;;;3.73;;
11537;SDS011;50159;49.426;11.182;2023-02-28T00:18:48;4.53;;;4.23;;
11537;SDS011;50159;49.426;11.182;2023-02-28T00:21:16;4.03;;;3.83;;
11537;SDS011;50159;49.426;11.182;2023-02-28T00:23:44;3.90;;;3.70;;
11537;SDS011;50159;49.426;11.182;2023-02-28T00:26:11;4.87;;;3.97;;
11537;SDS011;50159;49.426;11.182;2023-02-28T00:28:38;3.73;;;3.53;;
11537;SDS011;50159;49.426;11.182;2023-02-28T00:31:05;3.83;;;3.60;;
11537;SDS011;50159;49.426;11.182;2023-02-28T00:33:32;3.77;;;3.57;;
11537;SDS011;50159;49.426;11.182;2023-02-28T00:36:02;4.47;;;4.17;;
11537;SDS011;50159;49.426;11.182;2023-02-28T00:38:36;3.83;;;3.53;;
11537;SDS011;50159;49.426;11.182;2023-02-28T00:41:04;4.27;;;3.87;;
11537;SDS011;50159;49.426;11.182;2023-02-28T00:43:32;6.20;;;4.17;;
11537;SDS011;50159;49.426;11.182;2023-02-28T00:46:00;4.37;;;4.07;;
11537;SDS011;50159;49.426;11.182;2023-02-28T00:48:29;4.23;;;3.93;;
11537;SDS011;50159;49.426;11.182;2023-02-28T00:50:55;5.40;;;4.13;;
11537;SDS011;50159;49.426;11.182;2023-02-28T00:53:22;4.13;;;3.80;;
11537;SDS011;50159;49.426;11.182;2023-02-28T00:55:49;4.30;;;4.07;;
11537;SDS011;50159;49.426;11.182;2023-02-28T00:58:16;4.27;;;3.87;;
11537;SDS011;50159;49.426;11.182;2023-02-28T01:00:44;4.43;;;4.13;;
11537;SDS011;50159;49.426;11.182;2023-02-28T01:03:15;4.30;;;4.00;;
11537;SDS011;50159;49.426;11.182;2023-02-28T01:05:44;4.63;;;4.10;;
11537;SDS011;50159;49.426;11.182;2023-02-28T01:08:12;4.10;;;3.90;;
11537;SDS011;50159;49.426;11.182;2023-02-28T01:10:40;5.87;;;4.00;;
11537;SDS011;50159;49.426;11.182;2023-02-28T01:13:08;4.70;;;4.40;;
11537;SDS011;50159;49.426;11.182;2023-02-28T01:15:35;4.37;;;3.97;;
11537;SDS011;50159;49.426;11.182;2023-02-28T01:18:02;4.67;;;3.93;;
11537;SDS011;50159;49.426;11.182;2023-02-28T01:20:29;4.00;;;3.77;;
11537;SDS011;50159;49.426;11.182;2023-02-28T01:22:56;4.20;;;3.90;;
11537;SDS011;50159;49.426;11.182;2023-02-28T01:25:23;3.73;;;3.53;;
11537;SDS011;50159;49.426;11.182;2023-02-28T01:27:50;4.63;;;4.23;;
11537;SDS011;50159;49.426;11.182;2023-02-28T01:30:18;5.57;;;4.17;;
11537;SDS011;50159;49.426;11.182;2023-02-28T01:32:45;4.23;;;3.93;;
11537;SDS011;50159;49.426;11.182;2023-02-28T01:35:11;4.07;;;3.77;;
11537;SDS011;50159;49.426;11.182;2023-02-28T01:37:38;4.50;;;4.20;;
11537;SDS011;50159;49.426;11.182;2023-02-28T01:40:05;4.07;;;3.77;;
11537;SDS011;50159;49.426;11.182;2023-02-28T01:42:32;5.17;;;4.23;;
11537;SDS011;50159;49.426;11.182;2023-02-28T01:45:01;4.50;;;4.20;;
11537;SDS011;50159;49.426;11.182;2023-02-28T01:48:02;4.87;;;4.30;;
11537;SDS011;50159;49.426;11.182;2023-02-28T01:50:35;4.60;;;4.30;;
11537;SDS011;50159;49.426;11.182;2023-02-28T01:53:10;4.87;;;4.47;;
11537;SDS011;50159;49.426;11.182;2023-02-28T01:55:45;4.47;;;4.17;;
11537;SDS011;50159;49.426;11.182;2023-02-28T01:58:16;4.47;;;4.03;;
11537;SDS011;50159;49.426;11.182;2023-02-28T02:00:44;4.53;;;4.13;;
11537;SDS011;50159;49.426;11.182;2023-02-28T02:03:12;5.00;;;4.50;;
11537;SDS011;50159;49.426;11.182;2023-02-28T02:05:45;4.23;;;3.97;;
11537;SDS011;50159;49.426;11.182;2023-02-28T02:08:16;4.20;;;3.90;;
11537;SDS011;50159;49.426;11.182;2023-02-28T02:10:54;4.50;;;4.10;;
11537;SDS011;50159;49.426;11.182;2023-02-28T02:19:26;6.97;;;4.73;;
11537;SDS011;50159;49.426;11.182;2023-02-28T02:26:07;6.57;;;4.63;;
11537;SDS011;50159;49.426;11.182;2023-02-28T02:29:21;4.13;;;3.80;;
11537;SDS011;50159;49.426;11.182;2023-02-28T02:32:20;4.77;;;4.37;;
11537;SDS011;50159;49.426;11.182;2023-02-28T02:47:05;4.40;;;4.10;;
11537;SDS011;50159;49.426;11.182;2023-02-28T02:49:38;5.27;;;4.77;;
11537;SDS011;50159;49.426;11.182;2023-02-28T02:52:12;4.47;;;4.17;;
11537;SDS011;50159;49.426;11.182;2023-02-28T02:54:47;5.60;;;4.53;;
11537;SDS011;50159;49.426;11.182;2023-02-28T02:57:26;5.47;;;4.97;;
11537;SDS011;50159;49.426;11.182;2023-02-28T03:00:02;7.00;;;4.63;;
11537;SDS011;50159;49.426;11.182;2023-02-28T03:02:34;5.00;;;4.60;;
11537;SDS011;50159;49.426;11.182;2023-02-28T03:05:05;8.73;;;4.83;;
11537;SDS011;50159;49.426;11.182;2023-02-28T03:07:44;5.33;;;4.50;;
11537;SDS011;50159;49.426;11.182;2023-02-28T03:33:21;6.03;;;5.50;;
11537;SDS011;50159;49.426;11.182;2023-02-28T03:36:07;6.77;;;5.37;;
11537;SDS011;50159;49.426;11.182;2023-02-28T03:38:45;5.63;;;5.20;;
11537;SDS011;50159;49.426;11.182;2023-02-28T03:41:25;5.03;;;4.63;;
11537;SDS011;50159;49.426;11.182;2023-02-28T03:44:20;4.80;;;4.50;;
11537;SDS011;50159;49.426;11.182;2023-02-28T03:47:03;6.63;;;5.17;;
11537;SDS011;50159;49.426;11.182;2023-02-28T03:49:50;4.80;;;4.50;;
11537;SDS011;50159;49.426;11.182;2023-02-28T03:52:44;5.47;;;4.97;;
11537;SDS011;50159;49.426;11.182;2023-02-28T03:55:17;6.30;;;5.17;;
11537;SDS011;50159;49.426;11.182;2023-02-28T04:00:57;5.43;;;4.93;;
11537;SDS011;50159;49.426;11.182;2023-02-28T04:03:37;5.93;;;5.20;;
11537;SDS011;50159;49.426;11.182;2023-02-28T04:06:06;6.23;;;5.57;;
11537;SDS011;50159;49.426;11.182;2023-02-28T04:08:39;6.20;;;5.50;;
11537;SDS011;50159;49.426;11.182;2023-02-28T04:11:40;5.13;;;4.73;;
11537;SDS011;50159;49.426;11.182;2023-02-28T04:14:03;9.63;;;6.57;;
11537;SDS011;50159;49.426;11.182;2023-02-28T04:16:32;6.43;;;5.83;;
11537;SDS011;50159;49.426;11.182;2023-02-28T04:19:04;5.30;;;4.87;;
11537;SDS011;50159;49.426;11.182;2023-02-28T04:21:33;5.47;;;5.07;;
11537;SDS011;50159;49.426;11.182;2023-02-28T04:24:07;5.47;;;4.97;;
11537;SDS011;50159;49.426;11.182;2023-02-28T04:26:41;5.97;;;5.47;;
11537;SDS011;50159;49.426;11.182;2023-02-28T04:29:11;6.67;;;5.57;;
11537;SDS011;50159;49.426;11.182;2023-02-28T04:31:40;6.37;;;5.30;;
11537;SDS011;50159;49.426;11.182;2023-02-28T04:34:07;6.07;;;4.93;;
11537;SDS011;50159;49.426;11.182;2023-02-28T04:36:34;6.07;;;5.57;;
11537;SDS011;50159;49.426;11.182;2023-02-28T04:39:01;5.97;;;5.47;;
11537;SDS011;50159;49.426;11.182;2023-02-28T04:41:27;5.73;;;5.07;;
11537;SDS011;50159;49.426;11.182;2023-02-28T04:43:57;6.47;;;5.97;;
11537;SDS011;50159;49.426;11.182;2023-02-28T04:46:25;5.93;;;5.30;;
11537;SDS011;50159;49.426;11.182;2023-02-28T04:48:51;6.33;;;5.37;;
11537;SDS011;50159;49.426;11.182;2023-02-28T04:51:19;6.30;;;5.80;;
11537;SDS011;50159;49.426;11.182;2023-02-28T04:53:47;6.67;;;5.43;;
11537;SDS011;50159;49.426;11.182;2023-02-28T04:56:15;6.67;;;5.77;;
11537;SDS011;50159;49.426;11.182;2023-02-28T04:58:43;5.57;;;4.63;;
11537;SDS011;50159;49.426;11.182;2023-02-28T05:01:30;6.07;;;5.20;;
11537;SDS011;50159;49.426;11.182;2023-02-28T05:04:00;5.87;;;5.37;;
11537;SDS011;50159;49.426;11.182;2023-02-28T05:06:30;7.07;;;5.13;;
11537;SDS011;50159;49.426;11.182;2023-02-28T05:08:59;5.90;;;5.30;;
11537;SDS011;50159;49.426;11.182;2023-02-28T05:11:31;5.33;;;4.90;;
11537;SDS011;50159;49.426;11.182;2023-02-28T05:14:01;5.53;;;5.20;;
11537;SDS011;50159;49.426;11.182;2023-02-28T05:16:36;7.17;;;5.63;;
11537;SDS011;50159;49.426;11.182;2023-02-28T05:19:02;6.07;;;5.53;;
11537;SDS011;50159;49.426;11.182;2023-02-28T05:24:04;6.67;;;6.10;;
11537;SDS011;50159;49.426;11.182;2023-02-28T05:26:35;6.20;;;5.60;;
11537;SDS011;50159;49.426;11.182;2023-02-28T05:29:04;5.97;;;5.43;;
11537;SDS011;50159;49.426;11.182;2023-02-28T05:31:32;6.63;;;5.20;;
11537;SDS011;50159;49.426;11.182;2023-02-28T05:33:59;6.53;;;5.93;;
11537;SDS011;50159;49.426;11.182;2023-02-28T05:36:26;8.33;;;5.57;;
11537;SDS011;50159;49.426;11.182;2023-02-28T05:38:53;6.40;;;5.80;;
11537;SDS011;50159;49.426;11.182;2023-02-28T05:41:20;6.63;;;5.50;;
11537;SDS011;50159;49.426;11.182;2023-02-28T05:43:47;6.53;;;5.30;;
11537;SDS011;50159;49.426;11.182;2023-02-28T05:46:15;6.03;;;5.53;;
11537;SDS011;50159;49.426;11.182;2023-02-28T05:48:42;6.70;;;6.10;;
11537;SDS011;50159;49.426;11.182;2023-02-28T05:51:14;6.90;;;6.27;;
11537;SDS011;50159;49.426;11.182;2023-02-28T05:53:41;5.73;;;5.33;;
11537;SDS011;50159;49.426;11.182;2023-02-28T05:56:08;10.17;;;6.50;;
11537;SDS011;50159;49.426;11.182;2023-02-28T05:58:35;6.07;;;5.57;;
11537;SDS011;50159;49.426;11.182;2023-02-28T06:01:19;7.65;;;6.70;;
11537;SDS011;50159;49.426;11.182;2023-02-28T06:03:56;8.13;;;6.30;;
11537;SDS011;50159;49.426;11.182;2023-02-28T06:06:25;7.67;;;6.13;;
11537;SDS011;50159;49.426;11.182;2023-02-28T06:08:51;6.20;;;5.70;;
11537;SDS011;50159;49.426;11.182;2023-02-28T06:11:18;7.23;;;6.30;;
11537;SDS011;50159;49.426;11.182;2023-02-28T06:13:46;7.13;;;6.40;;
11537;SDS011;50159;49.426;11.182;2023-02-28T06:16:13;7.53;;;6.73;;
11537;SDS011;50159;49.426;11.182;2023-02-28T06:18:40;8.80;;;6.47;;
11537;SDS011;50159;49.426;11.182;2023-02-28T06:21:07;8.27;;;6.50;;
11537;SDS011;50159;49.426;11.182;2023-02-28T06:23:34;9.13;;;6.47;;
11537;SDS011;50159;49.426;11.182;2023-02-28T06:26:01;7.07;;;6.37;;
11537;SDS011;50159;49.426;11.182;2023-02-28T06:28:28;9.80;;;7.37;;
11537;SDS011;50159;49.426;11.182;2023-02-28T06:30:55;8.77;;;6.47;;
11537;SDS011;50159;49.426;11.182;2023-02-28T06:33:22;6.90;;;6.27;;
11537;SDS011;50159;49.426;11.182;2023-02-28T06:35:51;6.63;;;6.03;;
11537;SDS011;50159;49.426;11.182;2023-02-28T06:38:18;7.43;;;5.97;;
11537;SDS011;50159;49.426;11.182;2023-02-28T06:40:52;6.57;;;6.07;;
11537;SDS011;50159;49.426;11.182;2023-02-28T06:43:21;7.40;;;6.70;;
11537;SDS011;50159;49.426;11.182;2023-02-28T06:45:49;7.17;;;6.40;;
11537;SDS011;50159;49.426;11.182;2023-02-28T06:48:20;9.20;;;6.57;;
11537;SDS011;50159;49.426;11.182;2023-02-28T06:50:46;7.33;;;6.47;;
11537;SDS011;50159;49.426;11.182;2023-02-28T06:53:13;7.17;;;6.57;;
11537;SDS011;50159;49.426;11.182;2023-02-28T06:55:40;7.23;;;6.60;;
11537;SDS011;50159;49.426;11.182;2023-02-28T06:58:07;6.67;;;5.83;;
11537;SDS011;50159;49.426;11.182;2023-02-28T07:00:41;8.13;;;6.60;;
11537;SDS011;50159;49.426;11.182;2023-02-28T07:03:08;6.43;;;5.83;;
11537;SDS011;50159;49.426;11.182;2023-02-28T07:05:36;6.33;;;5.90;;
11537;SDS011;50159;49.426;11.182;2023-02-28T07:08:05;7.83;;;6.30;;
11537;SDS011;50159;49.426;11.182;2023-02-28T07:10:32;8.80;;;7.37;;
11537;SDS011;50159;49.426;11.182;2023-02-28T07:13:00;7.50;;;6.60;;
11537;SDS011;50159;49.426;11.182;2023-02-28T07:15:26;7.00;;;6.03;;
11537;SDS011;50159;49.426;11.182;2023-02-28T07:17:53;6.73;;;6.03;;
11537;SDS011;50159;49.426;11.182;2023-02-28T07:20:20;7.80;;;6.27;;
11537;SDS011;50159;49.426;11.182;2023-02-28T07:22:47;7.17;;;6.50;;
11537;SDS011;50159;49.426;11.182;2023-02-28T07:25:25;7.07;;;6.37;;
11537;SDS011;50159;49.426;11.182;2023-02-28T07:27:54;7.53;;;6.73;;
11537;SDS011;50159;49.426;11.182;2023-02-28T07:30:22;7.07;;;6.10;;
11537;SDS011;50159;49.426;11.182;2023-02-28T07:32:49;9.43;;;6.60;;
11537;SDS011;50159;49.426;11.182;2023-02-28T07:35:15;8.17;;;6.80;;
11537;SDS011;50159;49.426;11.182;2023-02-28T07:37:42;7.40;;;6.70;;
11537;SDS011;50159;49.426;11.182;2023-02-28T07:40:10;7.70;;;6.90;;
11537;SDS011;50159;49.426;11.182;2023-02-28T07:42:38;8.07;;;7.27;;
11537;SDS011;50159;49.426;11.182;2023-02-28T07:45:07;7.40;;;6.70;;
11537;SDS011;50159;49.426;11.182;2023-02-28T07:47:38;8.27;;;7.20;;
11537;SDS011;50159;49.426;11.182;2023-02-28T07:50:05;8.57;;;7.60;;
11537;SDS011;50159;49.426;11.182;2023-02-28T07:52:35;8.03;;;6.77;;
11537;SDS011;50159;49.426;11.182;2023-02-28T07:55:04;9.33;;;7.10;;
11537;SDS011;50159;49.426;11.182;2023-02-28T07:57:33;9.53;;;7.23;;
11537;SDS011;50159;49.426;11.182;2023-02-28T08:00:00;8.00;;;7.17;;
11537;SDS011;50159;49.426;11.182;2023-02-28T08:02:29;9.10;;;6.70;;
11537;SDS011;50159;49.426;11.182;2023-02-28T08:04:56;12.30;;;7.23;;
11537;SDS011;50159;49.426;11.182;2023-02-28T08:07:23;8.53;;;6.80;;
11537;SDS011;50159;49.426;11.182;2023-02-28T08:09:49;11.33;;;7.27;;
11537;SDS011;50159;49.426;11.182;2023-02-28T08:12:16;6.97;;;6.27;;
11537;SDS011;50159;49.426;11.182;2023-02-28T08:14:43;7.93;;;7.13;;
11537;SDS011;50159;49.426;11.182;2023-02-28T08:17:10;10.00;;;7.30;;
11537;SDS011;50159;49.426;11.182;2023-02-28T08:19:37;11.57;;;8.17;;
11537;SDS011;50159;49.426;11.182;2023-02-28T08:22:04;9.90;;;7.30;;
11537;SDS011;50159;49.426;11.182;2023-02-28T08:24:31;11.33;;;8.00;;
11537;SDS011;50159;49.426;11.182;2023-02-28T08:26:59;9.23;;;7.70;;
11537;SDS011;50159;49.426;11.182;2023-02-28T08:29:26;8.97;;;8.07;;
11537;SDS011;50159;49.426;11.182;2023-02-28T08:31:52;8.83;;;7.60;;
11537;SDS011;50159;49.426;11.182;2023-02-28T08:34:19;9.20;;;7.57;;
11537;SDS011;50159;49.426;11.182;2023-02-28T08:36:47;7.13;;;6.43;;
11537;SDS011;50159;49.426;11.182;2023-02-28T08:39:13;8.87;;;7.13;;
11537;SDS011;50159;49.426;11.182;2023-02-28T08:41:41;7.83;;;7.03;;
11537;SDS011;50159;49.426;11.182;2023-02-28T08:44:10;9.47;;;7.53;;
11537;SDS011;50159;49.426;11.182;2023-02-28T08:46:36;8.20;;;7.00;;
11537;SDS011;50159;49.426;11.182;2023-02-28T08:49:04;9.67;;;6.80;;
11537;SDS011;50159;49.426;11.182;2023-02-28T08:51:31;8.70;;;7.33;;
11537;SDS011;50159;49.426;11.182;2023-02-28T08:53:59;9.50;;;7.13;;
11537;SDS011;50159;49.426;11.182;2023-02-28T08:56:27;11.30;;;8.20;;
11537;SDS011;50159;49.426;11.182;2023-02-28T08:58:55;11.20;;;8.00;;
11537;SDS011;50159;49.426;11.182;2023-02-28T09:01:26;11.33;;;7.43;;
11537;SDS011;50159;49.426;11.182;2023-02-28T09:03:56;10.07;;;7.53;;
11537;SDS011;50159;49.426;11.182;2023-02-28T09:06:25;9.73;;;7.87;;
11537;SDS011;50159;49.426;11.182;2023-02-28T09:08:56;7.90;;;7.10;;
11537;SDS011;50159;49.426;11.182;2023-02-28T09:11:24;10.60;;;7.80;;
11537;SDS011;50159;49.426;11.182;2023-02-28T09:13:51;8.80;;;7.80;;
11537;SDS011;50159;49.426;11.182;2023-02-28T09:16:19;9.30;;;7.63;;
11537;SDS011;50159;49.426;11.182;2023-02-28T09:18:45;9.50;;;7.13;;
11537;SDS011;50159;49.426;11.182;2023-02-28T09:21:13;9.23;;;7.80;;
11537;SDS011;50159;49.426;11.182;2023-02-28T09:23:43;7.57;;;6.87;;
11537;SDS011;50159;49.426;11.182;2023-02-28T09:26:13;7.90;;;7.10;;
11537;SDS011;50159;49.426;11.182;2023-02-28T09:29:04;12.07;;;8.00;;
11537;SDS011;50159;49.426;11.182;2023-02-28T09:31:31;7.53;;;6.70;;
11537;SDS011;50159;49.426;11.182;2023-02-28T09:33:57;9.10;;;7.03;;
11537;SDS011;50159;49.426;11.182;2023-02-28T09:36:25;9.23;;;7.93;;
11537;SDS011;50159;49.426;11.182;2023-02-28T09:39:09;8.43;;;7.30;;
11537;SDS011;50159;49.426;11.182;2023-02-28T09:41:37;8.57;;;6.77;;
11537;SDS011;50159;49.426;11.182;2023-02-28T09:44:15;10.53;;;7.90;;
11537;SDS011;50159;49.426;11.182;2023-02-28T09:50:05;7.40;;;6.67;;
11537;SDS011;50159;49.426;11.182;2023-02-28T09:52:59;10.10;;;7.03;;
11537;SDS011;50159;49.426;11.182;2023-02-28T09:55:41;7.33;;;6.63;;
11537;SDS011;50159;49.426;11.182;2023-02-28T09:58:16;7.47;;;6.60;;
11537;SDS011;50159;49.426;11.182;2023-02-28T10:00:57;8.40;;;7.47;;
11537;SDS011;50159;49.426;11.182;2023-02-28T10:03:39;12.00;;;7.87;;
11537;SDS011;50159;49.426;11.182;2023-02-28T10:06:19;10.43;;;7.83;;
11537;SDS011;50159;49.426;11.182;2023-02-28T10:12:03;7.23;;;6.20;;
11537;SDS011;50159;49.426;11.182;2023-02-28T10:14:33;7.73;;;6.40;;
11537;SDS011;50159;49.426;11.182;2023-02-28T10:17:04;12.07;;;6.93;;
11537;SDS011;50159;49.426;11.182;2023-02-28T10:19:56;7.13;;;6.27;;
11537;SDS011;50159;49.426;11.182;2023-02-28T10:22:50;8.20;;;6.40;;
11537;SDS011;50159;49.426;11.182;2023-02-28T10:25:58;7.50;;;6.67;;
11537;SDS011;50159;49.426;11.182;2023-02-28T10:28:31;6.77;;;6.13;;
11537;SDS011;50159;49.426;11.182;2023-02-28T10:30:58;6.63;;;5.83;;
11537;SDS011;50159;49.426;11.182;2023-02-28T10:33:32;6.60;;;5.73;;
11537;SDS011;50159;49.426;11.182;2023-02-28T10:36:01;8.50;;;5.87;;
11537;SDS011;50159;49.426;11.182;2023-02-28T10:38:34;6.53;;;6.03;;
11537;SDS011;50159;49.426;11.182;2023-02-28T10:43:43;9.27;;;7.20;;
11537;SDS011;50159;49.426;11.182;2023-02-28T10:46:14;8.97;;;6.97;;
11537;SDS011;50159;49.426;11.182;2023-02-28T10:49:05;7.93;;;6.57;;
11537;SDS011;50159;49.426;11.182;2023-02-28T10:51:40;9.77;;;6.70;;
11537;SDS011;50159;49.426;11.182;2023-02-28T10:54:22;11.27;;;6.70;;
11537;SDS011;50159;49.426;11.182;2023-02-28T10:57:11;6.20;;;5.70;;
11537;SDS011;50159;49.426;11.182;2023-02-28T10:59:45;10.47;;;7.10;;
11537;SDS011;50159;49.426;11.182;2023-02-28T11:05:28;8.10;;;6.97;;
11537;SDS011;50159;49.426;11.182;2023-02-28T11:08:04;7.63;;;5.90;;
11537;SDS011;50159;49.426;11.182;2023-02-28T11:10:47;6.37;;;5.77;;
11537;SDS011;50159;49.426;11.182;2023-02-28T11:13:24;7.33;;;6.63;;
11537;SDS011;50159;49.426;11.182;2023-02-28T11:15:57;7.53;;;6.13;;
11537;SDS011;50159;49.426;11.182;2023-02-28T11:18:38;7.03;;;6.33;;
11537;SDS011;50159;49.426;11.182;2023-02-28T11:21:19;6.33;;;5.40;;
11537;SDS011;50159;49.426;11.182;2023-02-28T11:23:58;7.00;;;6.30;;
11537;SDS011;50159;49.426;11.182;2023-02-28T11:26:38;7.37;;;6.53;;
11537;SDS011;50159;49.426;11.182;2023-02-28T11:29:18;9.53;;;6.93;;
11537;SDS011;50159;49.426;11.182;2023-02-28T11:34:43;8.27;;;6.77;;
11537;SDS011;50159;49.426;11.182;2023-02-28T11:37:14;6.80;;;6.13;;
11537;SDS011;50159;49.426;11.182;2023-02-28T11:39:45;6.87;;;5.93;;
11537;SDS011;50159;49.426;11.182;2023-02-28T11:50:40;10.63;;;6.60;;
11537;SDS011;50159;49.426;11.182;2023-02-28T11:53:43;6.57;;;5.97;;
11537;SDS011;50159;49.426;11.182;2023-02-28T11:56:54;8.23;;;6.63;;
11537;SDS011;50159;49.426;11.182;2023-02-28T11:59:33;8.93;;;7.10;;
11537;SDS011;50159;49.426;11.182;2023-02-28T12:02:30;6.60;;;5.93;;
11537;SDS011;50159;49.426;11.182;2023-02-28T12:05:10;8.63;;;6.77;;
11537;SDS011;50159;49.426;11.182;2023-02-28T12:14:05;8.33;;;6.00;;
11537;SDS011;50159;49.426;11.182;2023-02-28T12:16:53;9.87;;;6.00;;
11537;SDS011;50159;49.426;11.182;2023-02-28T12:25:23;6.50;;;5.80;;
11537;SDS011;50159;49.426;11.182;2023-02-28T12:28:02;6.47;;;5.60;;
11537;SDS011;50159;49.426;11.182;2023-02-28T12:30:34;7.33;;;5.87;;
11537;SDS011;50159;49.426;11.182;2023-02-28T12:33:09;7.07;;;5.47;;
11537;SDS011;50159;49.426;11.182;2023-02-28T12:35:48;7.10;;;6.00;;
11537;SDS011;50159;49.426;11.182;2023-02-28T12:38:24;6.93;;;6.23;;
11537;SDS011;50159;49.426;11.182;2023-02-28T12:41:00;9.50;;;6.20;;
11537;SDS011;50159;49.426;11.182;2023-02-28T12:43:40;7.13;;;5.73;;
11537;SDS011;50159;49.426;11.182;2023-02-28T12:46:36;6.47;;;5.90;;
11537;SDS011;50159;49.426;11.182;2023-02-28T12:49:15;7.37;;;5.80;;
11537;SDS011;50159;49.426;11.182;2023-02-28T12:51:53;8.57;;;6.20;;
11537;SDS011;50159;49.426;11.182;2023-02-28T12:57:17;7.37;;;6.13;;
11537;SDS011;50159;49.426;11.182;2023-02-28T13:00:05;6.93;;;6.13;;
11537;SDS011;50159;49.426;11.182;2023-02-28T13:06:16;8.83;;;5.87;;
11537;SDS011;50159;49.426;11.182;2023-02-28T13:09:16;6.93;;;6.23;;
11537;SDS011;50159;49.426;11.182;2023-02-28T13:11:48;7.23;;;6.03;;
11537;SDS011;50159;49.426;11.182;2023-02-28T13:14:30;7.43;;;6.20;;
11537;SDS011;50159;49.426;11.182;2023-02-28T13:19:33;7.03;;;6.43;;
11537;SDS011;50159;49.426;11.182;2023-02-28T13:24:52;6.63;;;6.07;;
11537;SDS011;50159;49.426;11.182;2023-02-28T13:29:50;11.83;;;6.73;;
11537;SDS011;50159;49.426;11.182;2023-02-28T13:32:20;9.73;;;6.83;;
11537;SDS011;50159;49.426;11.182;2023-02-28T13:39:56;6.17;;;5.57;;
11537;SDS011;50159;49.426;11.182;2023-02-28T13:42:36;8.10;;;7.00;;
11537;SDS011;50159;49.426;11.182;2023-02-28T13:45:21;9.67;;;6.53;;
11537;SDS011;50159;49.426;11.182;2023-02-28T13:47:58;7.73;;;6.77;;
11537;SDS011;50159;49.426;11.182;2023-02-28T13:50:35;10.20;;;7.40;;
11537;SDS011;50159;49.426;11.182;2023-02-28T13:55:52;7.83;;;6.73;;
11537;SDS011;50159;49.426;11.182;2023-02-28T14:05:18;7.60;;;6.40;;
11537;SDS011;50159;49.426;11.182;2023-02-28T14:07:58;6.93;;;6.33;;
11537;SDS011;50159;49.426;11.182;2023-02-28T14:10:33;6.77;;;6.17;;
11537;SDS011;50159;49.426;11.182;2023-02-28T14:13:13;6.43;;;5.83;;
11537;SDS011;50159;49.426;11.182;2023-02-28T14:15:44;6.03;;;5.43;;
11537;SDS011;50159;49.426;11.182;2023-02-28T14:20:52;6.37;;;5.77;;
11537;SDS011;50159;49.426;11.182;2023-02-28T14:24:31;11.07;;;5.27;;
11537;SDS011;50159;49.426;11.182;2023-02-28T14:36:32;5.57;;;4.97;;
11537;SDS011;50159;49.426;11.182;2023-02-28T14:38:44;7.05;;;5.45;;
11537;SDS011;50159;49.426;11.182;2023-02-28T14:41:31;6.37;;;5.77;;
11537;SDS011;50159;49.426;11.182;2023-02-28T14:44:15;6.97;;;5.70;;
11537;SDS011;50159;49.426;11.182;2023-02-28T14:46:51;5.70;;;5.23;;
11537;SDS011;50159;49.426;11.182;2023-02-28T14:49:24;6.03;;;5.50;;
11537;SDS011;50159;49.426;11.182;2023-02-28T14:52:06;8.10;;;6.10;;
11537;SDS011;50159;49.426;11.182;2023-02-28T14:54:41;7.17;;;5.77;;
11537;SDS011;50159;49.426;11.182;2023-02-28T14:57:22;5.80;;;5.27;;
11537;SDS011;50159;49.426;11.182;2023-02-28T15:02:52;7.27;;;6.10;;
11537;SDS011;50159;49.426;11.182;2023-02-28T15:05:28;8.18;;;6.80;;
11537;SDS011;50159;49.426;11.182;2023-02-28T15:08:16;5.75;;;5.25;;
11537;SDS011;50159;49.426;11.182;2023-02-28T15:10:57;5.90;;;5.23;;
11537;SDS011;50159;49.426;11.182;2023-02-28T15:13:46;7.27;;;5.83;;
11537;SDS011;50159;49.426;11.182;2023-02-28T15:16:17;7.57;;;6.40;;
11537;SDS011;50159;49.426;11.182;2023-02-28T15:18:59;9.03;;;6.23;;
11537;SDS011;50159;49.426;11.182;2023-02-28T15:21:31;8.30;;;6.13;;
11537;SDS011;50159;49.426;11.182;2023-02-28T15:24:07;6.90;;;6.20;;
11537;SDS011;50159;49.426;11.182;2023-02-28T15:26:59;8.30;;;7.03;;
11537;SDS011;50159;49.426;11.182;2023-02-28T15:29:33;8.43;;;6.80;;
11537;SDS011;50159;49.426;11.182;2023-02-28T15:32:33;8.53;;;6.73;;
11537;SDS011;50159;49.426;11.182;2023-02-28T15:38:33;8.70;;;7.10;;
11537;SDS011;50159;49.426;11.182;2023-02-28T15:40:46;7.73;;;6.60;;
11537;SDS011;50159;49.426;11.182;2023-02-28T15:43:28;9.55;;;7.30;;
11537;SDS011;50159;49.426;11.182;2023-02-28T15:46:00;7.67;;;6.80;;
11537;SDS011;50159;49.426;11.182;2023-02-28T15:48:34;6.73;;;5.73;;
11537;SDS011;50159;49.426;11.182;2023-02-28T15:51:18;7.57;;;6.33;;
11537;SDS011;50159;49.426;11.182;2023-02-28T15:53:58;7.07;;;6.37;;
11537;SDS011;50159;49.426;11.182;2023-02-28T15:56:38;7.63;;;6.53;;
11537;SDS011;50159;49.426;11.182;2023-02-28T15:59:14;6.73;;;6.20;;
11537;SDS011;50159;49.426;11.182;2023-02-28T16:02:01;8.20;;;6.30;;
11537;SDS011;50159;49.426;11.182;2023-02-28T16:04:56;8.00;;;6.63;;
11537;SDS011;50159;49.426;11.182;2023-02-28T16:07:47;6.53;;;5.53;;
11537;SDS011;50159;49.426;11.182;2023-02-28T16:10:15;8.38;;;7.05;;
11537;SDS011;50159;49.426;11.182;2023-02-28T16:12:42;7.67;;;6.87;;
11537;SDS011;50159;49.426;11.182;2023-02-28T16:15:15;7.07;;;6.40;;
11537;SDS011;50159;49.426;11.182;2023-02-28T16:17:52;9.07;;;7.60;;
11537;SDS011;50159;49.426;11.182;2023-02-28T16:20:21;8.17;;;6.60;;
11537;SDS011;50159;49.426;11.182;2023-02-28T16:22:53;10.50;;;7.37;;
11537;SDS011;50159;49.426;11.182;2023-02-28T16:25:23;11.97;;;8.70;;
11537;SDS011;50159;49.426;11.182;2023-02-28T16:27:59;14.67;;;10.47;;
11537;SDS011;50159;49.426;11.182;2023-02-28T16:30:27;12.93;;;10.03;;
11537;SDS011;50159;49.426;11.182;2023-02-28T16:32:58;11.10;;;8.90;;
11537;SDS011;50159;49.426;11.182;2023-02-28T16:35:25;10.67;;;7.77;;
11537;SDS011;50159;49.426;11.182;2023-02-28T16:37:52;9.37;;;8.10;;
11537;SDS011;50159;49.426;11.182;2023-02-28T16:40:21;10.30;;;8.33;;
11537;SDS011;50159;49.426;11.182;2023-02-28T16:42:52;9.57;;;8.07;;
11537;SDS011;50159;49.426;11.182;2023-02-28T16:45:25;11.97;;;8.00;;
11537;SDS011;50159;49.426;11.182;2023-02-28T16:47:55;10.30;;;8.23;;
11537;SDS011;50159;49.426;11.182;2023-02-28T16:50:26;11.43;;;8.07;;
11537;SDS011;50159;49.426;11.182;2023-02-28T16:52:55;10.03;;;7.03;;
11537;SDS011;50159;49.426;11.182;2023-02-28T16:55:23;10.93;;;7.70;;
11537;SDS011;50159;49.426;11.182;2023-02-28T16:57:56;11.13;;;7.90;;
11537;SDS011;50159;49.426;11.182;2023-02-28T17:00:26;10.70;;;8.37;;
11537;SDS011;50159;49.426;11.182;2023-02-28T17:02:55;10.77;;;8.07;;
11537;SDS011;50159;49.426;11.182;2023-02-28T17:05:23;12.63;;;7.93;;
11537;SDS011;50159;49.426;11.182;2023-02-28T17:07:50;9.97;;;8.00;;
11537;SDS011;50159;49.426;11.182;2023-02-28T17:12:48;10.23;;;8.10;;
11537;SDS011;50159;49.426;11.182;2023-02-28T17:15:17;10.37;;;7.70;;
11537;SDS011;50159;49.426;11.182;2023-02-28T17:17:46;11.20;;;7.23;;
11537;SDS011;50159;49.426;11.182;2023-02-28T17:20:21;10.43;;;7.87;;
11537;SDS011;50159;49.426;11.182;2023-02-28T17:22:52;8.93;;;7.47;;
11537;SDS011;50159;49.426;11.182;2023-02-28T17:25:20;8.13;;;7.00;;